Time;durP1;ratioP1;P1;durP2;ratioP2;P2;SDS_P1;SDS_P2;PMS_P1;PMS_P2;Temp;Humidity;BMP_temperature;BMP_pressure;BME280_temperature;BME280_humidity;BME280_pressure;Samples;Min_cycle;Max_cycle;Signal;HPM_P1;HPM_P2
2022/07/05 00:00:35;;;;;;;3.9;3.45;;;;;;;17.92;90.21094;95585.05;;;;
2022/07/05 00:01:35;;;;;;;3.9;3.45;;;;;;;17.92;90.21094;95585.05;;;;
2022/07/05 00:02:36;;;;;;;3.9;3.45;;;;;;;17.92;90.21094;95585.05;;;;
2022/07/05 00:03:37;;;;;;;3.9;3.45;;;;;;;17.92;90.21094;95585.05;;;;
2022/07/05 00:04:37;;;;;;;3.9;3.45;;;;;;;17.92;90.21094;95585.05;;;;
2022/07/05 00:05:37;;;;;;;3.9;3.45;;;;;;;17.92;90.21094;95585.05;;;;
2022/07/05 00:07:17;;;;;;;3.9;3.45;;;;;;;17.92;90.21094;95585.05;;;;
2022/07/05 00:08:18;;;;;;;3.9;3.45;;;;;;;17.92;90.21094;95585.05;;;;
2022/07/05 00:09:18;;;;;;;3.9;3.45;;;;;;;17.92;90.21094;95585.05;;;;
2022/07/05 00:10:19;;;;;;;3.9;3.45;;;;;;;17.92;90.21094;95585.05;;;;
2022/07/05 00:11:19;;;;;;;3.9;3.45;;;;;;;17.92;90.21094;95585.05;;;;
2022/07/05 00:12:20;;;;;;;3.9;3.45;;;;;;;17.92;90.21094;95585.05;;;;
2022/07/05 00:13:23;;;;;;;3.9;3.45;;;;;;;17.92;90.21094;95585.05;;;;
2022/07/05 00:14:24;;;;;;;3.9;3.45;;;;;;;17.92;90.21094;95585.05;;;;
2022/07/05 00:15:25;;;;;;;3.9;3.45;;;;;;;17.92;90.21094;95585.05;;;;
2022/07/05 00:16:25;;;;;;;3.9;3.25;;;;;;;17.86;90.7002;95580.16;;;;
2022/07/05 00:17:26;;;;;;;3.9;3.25;;;;;;;17.86;90.7002;95580.16;;;;
2022/07/05 00:18:26;;;;;;;3.9;3.25;;;;;;;17.86;90.7002;95580.16;;;;
2022/07/05 00:19:27;;;;;;;3.9;3.25;;;;;;;17.86;90.7002;95580.16;;;;
2022/07/05 00:20:27;;;;;;;3.9;3.25;;;;;;;17.86;90.7002;95580.16;;;;
2022/07/05 00:21:28;;;;;;;3.9;3.25;;;;;;;17.86;90.7002;95580.16;;;;
2022/07/05 00:22:28;;;;;;;3.9;3.25;;;;;;;17.86;90.7002;95580.16;;;;
2022/07/05 00:23:29;;;;;;;3.9;3.25;;;;;;;17.86;90.7002;95580.16;;;;
2022/07/05 00:24:29;;;;;;;3.9;3.25;;;;;;;17.86;90.7002;95580.16;;;;
2022/07/05 00:25:30;;;;;;;3.9;3.25;;;;;;;17.86;90.7002;95580.16;;;;
2022/07/05 00:26:30;;;;;;;4.950001;3.7;;;;;;;17.82;90.78809;95596.55;;;;
2022/07/05 00:27:31;;;;;;;4.950001;3.7;;;;;;;17.82;90.78809;95596.55;;;;
2022/07/05 00:28:31;;;;;;;4.950001;3.7;;;;;;;17.82;90.78809;95596.55;;;;
2022/07/05 00:29:32;;;;;;;4.950001;3.7;;;;;;;17.82;90.78809;95596.55;;;;
2022/07/05 00:30:32;;;;;;;4.950001;3.7;;;;;;;17.82;90.78809;95596.55;;;;
2022/07/05 00:31:33;;;;;;;4.950001;3.7;;;;;;;17.82;90.78809;95596.55;;;;
2022/07/05 00:32:33;;;;;;;4.950001;3.7;;;;;;;17.82;90.78809;95596.55;;;;
2022/07/05 00:33:34;;;;;;;4.950001;3.7;;;;;;;17.82;90.78809;95596.55;;;;
2022/07/05 00:34:34;;;;;;;4.950001;3.7;;;;;;;17.82;90.78809;95596.55;;;;
2022/07/05 00:35:35;;;;;;;4.950001;3.7;;;;;;;17.82;90.78809;95596.55;;;;
2022/07/05 00:36:35;;;;;;;4.950001;3.7;;;;;;;17.82;90.78809;95596.55;;;;
2022/07/05 00:37:36;;;;;;;4.449999;4;;;;;;;17.82;91.03906;95583.17;;;;
2022/07/05 00:38:37;;;;;;;4.449999;4;;;;;;;17.82;91.03906;95583.17;;;;
2022/07/05 00:39:37;;;;;;;4.449999;4;;;;;;;17.82;91.03906;95583.17;;;;
2022/07/05 00:40:38;;;;;;;4.449999;4;;;;;;;17.82;91.03906;95583.17;;;;
2022/07/05 00:41:38;;;;;;;4.449999;4;;;;;;;17.82;91.03906;95583.17;;;;
2022/07/05 00:42:39;;;;;;;4.449999;4;;;;;;;17.82;91.03906;95583.17;;;;
2022/07/05 00:43:39;;;;;;;4.449999;4;;;;;;;17.82;91.03906;95583.17;;;;
2022/07/05 00:44:52;;;;;;;4.449999;4;;;;;;;17.82;91.03906;95583.17;;;;
2022/07/05 00:45:53;;;;;;;4.449999;4;;;;;;;17.82;91.03906;95583.17;;;;
2022/07/05 00:46:53;;;;;;;4.449999;4;;;;;;;17.82;91.03906;95583.17;;;;
2022/07/05 00:47:54;;;;;;;6.149999;3.85;;;;;;;17.75;91.10156;95545.54;;;;
2022/07/05 00:48:54;;;;;;;6.149999;3.85;;;;;;;17.75;91.10156;95545.54;;;;
2022/07/05 00:49:56;;;;;;;6.149999;3.85;;;;;;;17.75;91.10156;95545.54;;;;
2022/07/05 00:50:57;;;;;;;6.149999;3.85;;;;;;;17.75;91.10156;95545.54;;;;
2022/07/05 00:51:58;;;;;;;6.149999;3.85;;;;;;;17.75;91.10156;95545.54;;;;
2022/07/05 00:52:59;;;;;;;6.149999;3.85;;;;;;;17.75;91.10156;95545.54;;;;
2022/07/05 00:54:00;;;;;;;6.149999;3.85;;;;;;;17.75;91.10156;95545.54;;;;
2022/07/05 00:55:01;;;;;;;6.149999;3.85;;;;;;;17.75;91.10156;95545.54;;;;
2022/07/05 00:56:01;;;;;;;6.149999;3.85;;;;;;;17.75;91.10156;95545.54;;;;
2022/07/05 00:57:04;;;;;;;6.149999;3.85;;;;;;;17.75;91.10156;95545.54;;;;
2022/07/05 00:58:06;;;;;;;6.149999;3.85;;;;;;;17.75;91.10156;95545.54;;;;
2022/07/05 00:59:06;;;;;;;4.7;4.2;;;;;;;17.73;91.46777;95554.74;;;;
2022/07/05 01:00:07;;;;;;;4.7;4.2;;;;;;;17.73;91.46777;95554.74;;;;
2022/07/05 01:01:09;;;;;;;4.7;4.2;;;;;;;17.73;91.46777;95554.74;;;;
2022/07/05 01:02:10;;;;;;;4.7;4.2;;;;;;;17.73;91.46777;95554.74;;;;
2022/07/05 01:03:12;;;;;;;4.7;4.2;;;;;;;17.73;91.46777;95554.74;;;;
2022/07/05 01:04:13;;;;;;;4.7;4.2;;;;;;;17.73;91.46777;95554.74;;;;
2022/07/05 01:05:13;;;;;;;4.7;4.2;;;;;;;17.73;91.46777;95554.74;;;;
2022/07/05 01:06:15;;;;;;;4.7;4.2;;;;;;;17.73;91.46777;95554.74;;;;
2022/07/05 01:07:15;;;;;;;4.7;4.2;;;;;;;17.73;91.46777;95554.74;;;;
2022/07/05 01:08:18;;;;;;;4.7;4.2;;;;;;;17.73;91.46777;95554.74;;;;
2022/07/05 01:09:18;;;;;;;5.599999;4.550001;;;;;;;17.62;91.60742;95550.71;;;;
2022/07/05 01:10:21;;;;;;;5.599999;4.550001;;;;;;;17.62;91.60742;95550.71;;;;
2022/07/05 01:11:22;;;;;;;5.599999;4.550001;;;;;;;17.62;91.60742;95550.71;;;;
2022/07/05 01:12:22;;;;;;;5.599999;4.550001;;;;;;;17.62;91.60742;95550.71;;;;
2022/07/05 01:13:23;;;;;;;5.599999;4.550001;;;;;;;17.62;91.60742;95550.71;;;;
2022/07/05 01:14:25;;;;;;;5.599999;4.550001;;;;;;;17.62;91.60742;95550.71;;;;
2022/07/05 01:15:25;;;;;;;5.599999;4.550001;;;;;;;17.62;91.60742;95550.71;;;;
2022/07/05 01:16:27;;;;;;;5.599999;4.550001;;;;;;;17.62;91.60742;95550.71;;;;
2022/07/05 01:17:28;;;;;;;5.599999;4.550001;;;;;;;17.62;91.60742;95550.71;;;;
2022/07/05 01:18:29;;;;;;;5.599999;4.550001;;;;;;;17.62;91.60742;95550.71;;;;
2022/07/05 01:19:30;;;;;;;5.599999;4.550001;;;;;;;17.62;91.60742;95550.71;;;;
2022/07/05 01:20:31;;;;;;;5.999999;5.299999;;;;;;;17.59;92.06934;95553.07;;;;
2022/07/05 01:21:32;;;;;;;5.999999;5.299999;;;;;;;17.59;92.06934;95553.07;;;;
2022/07/05 01:22:37;;;;;;;5.999999;5.299999;;;;;;;17.59;92.06934;95553.07;;;;
2022/07/05 01:23:50;;;;;;;5.999999;5.299999;;;;;;;17.59;92.06934;95553.07;;;;
2022/07/05 01:24:51;;;;;;;5.999999;5.299999;;;;;;;17.59;92.06934;95553.07;;;;
2022/07/05 01:25:53;;;;;;;5.999999;5.299999;;;;;;;17.59;92.06934;95553.07;;;;
2022/07/05 01:26:54;;;;;;;5.999999;5.299999;;;;;;;17.59;92.06934;95553.07;;;;
2022/07/05 01:27:55;;;;;;;5.999999;5.299999;;;;;;;17.59;92.06934;95553.07;;;;
2022/07/05 01:28:57;;;;;;;5.999999;5.299999;;;;;;;17.59;92.06934;95553.07;;;;
2022/07/05 01:29:58;;;;;;;5.999999;5.299999;;;;;;;17.59;92.06934;95553.07;;;;
2022/07/05 01:30:58;;;;;;;7.349999;6.65;;;;;;;17.48;92.16602;95556.27;;;;
2022/07/05 01:32:00;;;;;;;7.349999;6.65;;;;;;;17.48;92.16602;95556.27;;;;
2022/07/05 01:33:01;;;;;;;7.349999;6.65;;;;;;;17.48;92.16602;95556.27;;;;
2022/07/05 01:34:01;;;;;;;7.349999;6.65;;;;;;;17.48;92.16602;95556.27;;;;
2022/07/05 01:35:02;;;;;;;7.349999;6.65;;;;;;;17.48;92.16602;95556.27;;;;
2022/07/05 01:36:07;;;;;;;7.349999;6.65;;;;;;;17.48;92.16602;95556.27;;;;
2022/07/05 01:37:10;;;;;;;7.349999;6.65;;;;;;;17.48;92.16602;95556.27;;;;
2022/07/05 01:38:11;;;;;;;7.349999;6.65;;;;;;;17.48;92.16602;95556.27;;;;
2022/07/05 01:39:12;;;;;;;7.349999;6.65;;;;;;;17.48;92.16602;95556.27;;;;
2022/07/05 01:40:12;;;;;;;7.349999;6.65;;;;;;;17.48;92.16602;95556.27;;;;
2022/07/05 01:41:14;;;;;;;7.349999;6.65;;;;;;;17.48;92.16602;95556.27;;;;
2022/07/05 01:42:14;;;;;;;7.349999;6.65;;;;;;;17.48;92.16602;95556.27;;;;
2022/07/05 01:43:15;;;;;;;7.349999;6.65;;;;;;;17.48;92.16602;95556.27;;;;
2022/07/05 01:44:15;;;;;;;7.349999;6.65;;;;;;;17.48;92.16602;95556.27;;;;
2022/07/05 01:45:38;;;;;;;7.349999;6.65;;;;;;;17.48;92.16602;95556.27;;;;
2022/07/05 01:46:39;;;;;;;7.349999;6.65;;;;;;;17.48;92.16602;95556.27;;;;
2022/07/05 01:47:40;;;;;;;7.349999;6.65;;;;;;;17.48;92.16602;95556.27;;;;
2022/07/05 01:48:43;;;;;;;7.349999;6.65;;;;;;;17.48;92.16602;95556.27;;;;
2022/07/05 01:49:44;;;;;;;7.349999;6.65;;;;;;;17.48;92.16602;95556.27;;;;
2022/07/05 01:50:47;;;;;;;7.349999;6.65;;;;;;;17.48;92.16602;95556.27;;;;
2022/07/05 01:51:53;;;;;;;8.1;7.400001;;;;;;;17.4;92.79004;95562.01;;;;
2022/07/05 01:52:57;;;;;;;8.1;7.400001;;;;;;;17.4;92.79004;95562.01;;;;
2022/07/05 01:54:01;;;;;;;8.1;7.400001;;;;;;;17.4;92.79004;95562.01;;;;
2022/07/05 01:55:02;;;;;;;8.1;7.400001;;;;;;;17.4;92.79004;95562.01;;;;
2022/07/05 01:56:04;;;;;;;8.1;7.400001;;;;;;;17.4;92.79004;95562.01;;;;
2022/07/05 01:57:05;;;;;;;8.1;7.400001;;;;;;;17.4;92.79004;95562.01;;;;
2022/07/05 01:58:07;;;;;;;8.1;7.400001;;;;;;;17.4;92.79004;95562.01;;;;
2022/07/05 01:59:08;;;;;;;8.1;7.400001;;;;;;;17.4;92.79004;95562.01;;;;
2022/07/05 02:00:09;;;;;;;8.1;7.400001;;;;;;;17.4;92.79004;95562.01;;;;
2022/07/05 02:01:10;;;;;;;8.1;7.400001;;;;;;;17.4;92.79004;95562.01;;;;
2022/07/05 02:02:12;;;;;;;8.1;7.400001;;;;;;;17.4;92.79004;95562.01;;;;
2022/07/05 02:03:13;;;;;;;6.950001;6.349999;;;;;;;17.42;93.19629;95540.26;;;;
2022/07/05 02:04:15;;;;;;;6.950001;6.349999;;;;;;;17.42;93.19629;95540.26;;;;
2022/07/05 02:05:17;;;;;;;6.950001;6.349999;;;;;;;17.42;93.19629;95540.26;;;;
2022/07/05 02:06:18;;;;;;;6.950001;6.349999;;;;;;;17.42;93.19629;95540.26;;;;
2022/07/05 02:07:18;;;;;;;6.950001;6.349999;;;;;;;17.42;93.19629;95540.26;;;;
2022/07/05 02:08:19;;;;;;;6.950001;6.349999;;;;;;;17.42;93.19629;95540.26;;;;
2022/07/05 02:09:20;;;;;;;6.950001;6.349999;;;;;;;17.42;93.19629;95540.26;;;;
2022/07/05 02:10:20;;;;;;;6.950001;6.349999;;;;;;;17.42;93.19629;95540.26;;;;
2022/07/05 02:11:21;;;;;;;6.950001;6.349999;;;;;;;17.42;93.19629;95540.26;;;;
2022/07/05 02:12:21;;;;;;;6.950001;6.349999;;;;;;;17.42;93.19629;95540.26;;;;
2022/07/05 02:13:22;;;;;;;7.199999;6.5;;;;;;;17.33;93.25293;95550.71;;;;
2022/07/05 02:14:23;;;;;;;7.199999;6.5;;;;;;;17.33;93.25293;95550.71;;;;
2022/07/05 02:15:23;;;;;;;7.199999;6.5;;;;;;;17.33;93.25293;95550.71;;;;
2022/07/05 02:16:24;;;;;;;7.199999;6.5;;;;;;;17.33;93.25293;95550.71;;;;
2022/07/05 02:17:25;;;;;;;7.199999;6.5;;;;;;;17.33;93.25293;95550.71;;;;
2022/07/05 02:18:26;;;;;;;7.199999;6.5;;;;;;;17.33;93.25293;95550.71;;;;
2022/07/05 02:19:26;;;;;;;7.199999;6.5;;;;;;;17.33;93.25293;95550.71;;;;
2022/07/05 02:20:27;;;;;;;7.199999;6.5;;;;;;;17.33;93.25293;95550.71;;;;
2022/07/05 02:21:29;;;;;;;7.199999;6.5;;;;;;;17.33;93.25293;95550.71;;;;
2022/07/05 02:22:30;;;;;;;7.199999;6.5;;;;;;;17.33;93.25293;95550.71;;;;
2022/07/05 02:23:32;;;;;;;7.199999;6.5;;;;;;;17.33;93.25293;95550.71;;;;
2022/07/05 02:24:33;;;;;;;6.85;6.15;;;;;;;17.31;93.52246;95554.57;;;;
2022/07/05 02:25:33;;;;;;;6.85;6.15;;;;;;;17.31;93.52246;95554.57;;;;
2022/07/05 02:26:34;;;;;;;6.85;6.15;;;;;;;17.31;93.52246;95554.57;;;;
2022/07/05 02:27:35;;;;;;;6.85;6.15;;;;;;;17.31;93.52246;95554.57;;;;
2022/07/05 02:28:36;;;;;;;6.85;6.15;;;;;;;17.31;93.52246;95554.57;;;;
2022/07/05 02:29:37;;;;;;;6.85;6.15;;;;;;;17.31;93.52246;95554.57;;;;
2022/07/05 02:30:37;;;;;;;6.85;6.15;;;;;;;17.31;93.52246;95554.57;;;;
2022/07/05 02:31:37;;;;;;;6.85;6.15;;;;;;;17.31;93.52246;95554.57;;;;
2022/07/05 02:32:38;;;;;;;6.85;6.15;;;;;;;17.31;93.52246;95554.57;;;;
2022/07/05 02:33:39;;;;;;;6.85;6.15;;;;;;;17.31;93.52246;95554.57;;;;
2022/07/05 02:34:39;;;;;;;6.85;6.250001;;;;;;;17.23;93.62402;95559.4;;;;
2022/07/05 02:35:40;;;;;;;6.85;6.250001;;;;;;;17.23;93.62402;95559.4;;;;
2022/07/05 02:36:40;;;;;;;6.85;6.250001;;;;;;;17.23;93.62402;95559.4;;;;
2022/07/05 02:37:41;;;;;;;6.85;6.250001;;;;;;;17.23;93.62402;95559.4;;;;
2022/07/05 02:38:42;;;;;;;6.85;6.250001;;;;;;;17.23;93.62402;95559.4;;;;
2022/07/05 02:39:42;;;;;;;6.85;6.250001;;;;;;;17.23;93.62402;95559.4;;;;
2022/07/05 02:40:43;;;;;;;6.85;6.250001;;;;;;;17.23;93.62402;95559.4;;;;
2022/07/05 02:41:43;;;;;;;6.85;6.250001;;;;;;;17.23;93.62402;95559.4;;;;
2022/07/05 02:42:44;;;;;;;6.85;6.250001;;;;;;;17.23;93.62402;95559.4;;;;
2022/07/05 02:43:44;;;;;;;6.85;6.250001;;;;;;;17.23;93.62402;95559.4;;;;
2022/07/05 02:44:45;;;;;;;6.85;6.250001;;;;;;;17.23;93.62402;95559.4;;;;
2022/07/05 02:45:45;;;;;;;6.099999;5.599999;;;;;;;17.2;93.91309;95560.27;;;;
2022/07/05 02:46:46;;;;;;;6.099999;5.599999;;;;;;;17.2;93.91309;95560.27;;;;
2022/07/05 02:47:46;;;;;;;6.099999;5.599999;;;;;;;17.2;93.91309;95560.27;;;;
2022/07/05 02:48:47;;;;;;;6.099999;5.599999;;;;;;;17.2;93.91309;95560.27;;;;
2022/07/05 02:49:47;;;;;;;6.099999;5.599999;;;;;;;17.2;93.91309;95560.27;;;;
2022/07/05 02:50:48;;;;;;;6.099999;5.599999;;;;;;;17.2;93.91309;95560.27;;;;
2022/07/05 02:51:48;;;;;;;6.099999;5.599999;;;;;;;17.2;93.91309;95560.27;;;;
2022/07/05 02:52:49;;;;;;;6.099999;5.599999;;;;;;;17.2;93.91309;95560.27;;;;
2022/07/05 02:53:49;;;;;;;6.099999;5.599999;;;;;;;17.2;93.91309;95560.27;;;;
2022/07/05 02:54:50;;;;;;;6.099999;5.599999;;;;;;;17.2;93.91309;95560.27;;;;
2022/07/05 02:55:50;;;;;;;6.099999;5.599999;;;;;;;17.2;93.91309;95560.27;;;;
2022/07/05 02:56:51;;;;;;;6.25;5.599999;;;;;;;17.09;93.9541;95559.85;;;;
2022/07/05 02:57:52;;;;;;;6.25;5.599999;;;;;;;17.09;93.9541;95559.85;;;;
2022/07/05 02:58:52;;;;;;;6.25;5.599999;;;;;;;17.09;93.9541;95559.85;;;;
2022/07/05 02:59:53;;;;;;;6.25;5.599999;;;;;;;17.09;93.9541;95559.85;;;;
2022/07/05 03:00:53;;;;;;;6.25;5.599999;;;;;;;17.09;93.9541;95559.85;;;;
2022/07/05 03:01:54;;;;;;;6.25;5.599999;;;;;;;17.09;93.9541;95559.85;;;;
2022/07/05 03:02:54;;;;;;;6.25;5.599999;;;;;;;17.09;93.9541;95559.85;;;;
2022/07/05 03:03:55;;;;;;;6.25;5.599999;;;;;;;17.09;93.9541;95559.85;;;;
2022/07/05 03:04:55;;;;;;;6.25;5.599999;;;;;;;17.09;93.9541;95559.85;;;;
2022/07/05 03:05:56;;;;;;;6.25;5.599999;;;;;;;17.09;93.9541;95559.85;;;;
2022/07/05 03:06:56;;;;;;;5.6;5.050001;;;;;;;16.96;94.13281;95569.95;;;;
2022/07/05 03:07:57;;;;;;;5.6;5.050001;;;;;;;16.96;94.13281;95569.95;;;;
2022/07/05 03:08:58;;;;;;;5.6;5.050001;;;;;;;16.96;94.13281;95569.95;;;;
2022/07/05 03:09:58;;;;;;;5.6;5.050001;;;;;;;16.96;94.13281;95569.95;;;;
2022/07/05 03:10:59;;;;;;;5.6;5.050001;;;;;;;16.96;94.13281;95569.95;;;;
2022/07/05 03:11:59;;;;;;;5.6;5.050001;;;;;;;16.96;94.13281;95569.95;;;;
2022/07/05 03:12:59;;;;;;;5.6;5.050001;;;;;;;16.96;94.13281;95569.95;;;;
2022/07/05 03:14:00;;;;;;;5.6;5.050001;;;;;;;16.96;94.13281;95569.95;;;;
2022/07/05 03:15:00;;;;;;;5.6;5.050001;;;;;;;16.96;94.13281;95569.95;;;;
2022/07/05 03:16:01;;;;;;;5.6;5.050001;;;;;;;16.96;94.13281;95569.95;;;;
2022/07/05 03:17:02;;;;;;;5.6;5.050001;;;;;;;16.96;94.13281;95569.95;;;;
2022/07/05 03:18:03;;;;;;;5.149999;4.75;;;;;;;16.79;94.31445;95566.08;;;;
2022/07/05 03:19:03;;;;;;;5.149999;4.75;;;;;;;16.79;94.31445;95566.08;;;;
2022/07/05 03:20:04;;;;;;;5.149999;4.75;;;;;;;16.79;94.31445;95566.08;;;;
2022/07/05 03:21:05;;;;;;;5.149999;4.75;;;;;;;16.79;94.31445;95566.08;;;;
2022/07/05 03:22:06;;;;;;;5.149999;4.75;;;;;;;16.79;94.31445;95566.08;;;;
2022/07/05 03:23:06;;;;;;;5.149999;4.75;;;;;;;16.79;94.31445;95566.08;;;;
2022/07/05 03:24:07;;;;;;;5.149999;4.75;;;;;;;16.79;94.31445;95566.08;;;;
2022/07/05 03:25:07;;;;;;;5.149999;4.75;;;;;;;16.79;94.31445;95566.08;;;;
2022/07/05 03:26:08;;;;;;;5.149999;4.75;;;;;;;16.79;94.31445;95566.08;;;;
2022/07/05 03:27:09;;;;;;;5.149999;4.75;;;;;;;16.79;94.31445;95566.08;;;;
2022/07/05 03:28:09;;;;;;;5.200001;4.700001;;;;;;;16.8;94.77246;95569.44;;;;
2022/07/05 03:29:10;;;;;;;5.200001;4.700001;;;;;;;16.8;94.77246;95569.44;;;;
2022/07/05 03:30:10;;;;;;;5.200001;4.700001;;;;;;;16.8;94.77246;95569.44;;;;
2022/07/05 03:31:13;;;;;;;5.200001;4.700001;;;;;;;16.8;94.77246;95569.44;;;;
2022/07/05 03:32:13;;;;;;;5.200001;4.700001;;;;;;;16.8;94.77246;95569.44;;;;
2022/07/05 03:33:14;;;;;;;5.200001;4.700001;;;;;;;16.8;94.77246;95569.44;;;;
2022/07/05 03:34:14;;;;;;;5.200001;4.700001;;;;;;;16.8;94.77246;95569.44;;;;
2022/07/05 03:35:15;;;;;;;5.200001;4.700001;;;;;;;16.8;94.77246;95569.44;;;;
2022/07/05 03:36:16;;;;;;;5.200001;4.700001;;;;;;;16.8;94.77246;95569.44;;;;
2022/07/05 03:37:16;;;;;;;5.200001;4.700001;;;;;;;16.8;94.77246;95569.44;;;;
2022/07/05 03:38:17;;;;;;;5.200001;4.700001;;;;;;;16.8;94.77246;95569.44;;;;
2022/07/05 03:39:18;;;;;;;5.650001;4.75;;;;;;;16.72;94.71094;95575.7;;;;
2022/07/05 03:40:18;;;;;;;5.650001;4.75;;;;;;;16.72;94.71094;95575.7;;;;
2022/07/05 03:41:19;;;;;;;5.650001;4.75;;;;;;;16.72;94.71094;95575.7;;;;
2022/07/05 03:42:19;;;;;;;5.650001;4.75;;;;;;;16.72;94.71094;95575.7;;;;
2022/07/05 03:43:20;;;;;;;5.650001;4.75;;;;;;;16.72;94.71094;95575.7;;;;
2022/07/05 03:44:20;;;;;;;5.650001;4.75;;;;;;;16.72;94.71094;95575.7;;;;
2022/07/05 03:45:21;;;;;;;5.650001;4.75;;;;;;;16.72;94.71094;95575.7;;;;
2022/07/05 03:46:21;;;;;;;5.650001;4.75;;;;;;;16.72;94.71094;95575.7;;;;
2022/07/05 03:47:22;;;;;;;5.650001;4.75;;;;;;;16.72;94.71094;95575.7;;;;
2022/07/05 03:48:22;;;;;;;5.650001;4.75;;;;;;;16.72;94.71094;95575.7;;;;
2022/07/05 03:49:23;;;;;;;4.950001;4.500001;;;;;;;16.6;94.92285;95579.36;;;;
2022/07/05 03:50:23;;;;;;;4.950001;4.500001;;;;;;;16.6;94.92285;95579.36;;;;
2022/07/05 03:51:24;;;;;;;4.950001;4.500001;;;;;;;16.6;94.92285;95579.36;;;;
2022/07/05 03:52:24;;;;;;;4.950001;4.500001;;;;;;;16.6;94.92285;95579.36;;;;
2022/07/05 03:53:25;;;;;;;4.950001;4.500001;;;;;;;16.6;94.92285;95579.36;;;;
2022/07/05 03:54:25;;;;;;;4.950001;4.500001;;;;;;;16.6;94.92285;95579.36;;;;
2022/07/05 03:55:26;;;;;;;4.950001;4.500001;;;;;;;16.6;94.92285;95579.36;;;;
2022/07/05 03:56:26;;;;;;;4.950001;4.500001;;;;;;;16.6;94.92285;95579.36;;;;
2022/07/05 03:57:27;;;;;;;4.950001;4.500001;;;;;;;16.6;94.92285;95579.36;;;;
2022/07/05 03:58:27;;;;;;;4.950001;4.500001;;;;;;;16.6;94.92285;95579.36;;;;
2022/07/05 03:59:28;;;;;;;4.950001;4.500001;;;;;;;16.6;94.92285;95579.36;;;;
2022/07/05 04:00:28;;;;;;;5.3;4.8;;;;;;;16.47;95.03613;95584.08;;;;
2022/07/05 04:01:29;;;;;;;5.3;4.8;;;;;;;16.47;95.03613;95584.08;;;;
2022/07/05 04:02:30;;;;;;;5.3;4.8;;;;;;;16.47;95.03613;95584.08;;;;
2022/07/05 04:03:30;;;;;;;5.3;4.8;;;;;;;16.47;95.03613;95584.08;;;;
2022/07/05 04:04:31;;;;;;;5.3;4.8;;;;;;;16.47;95.03613;95584.08;;;;
2022/07/05 04:05:31;;;;;;;5.3;4.8;;;;;;;16.47;95.03613;95584.08;;;;
2022/07/05 04:06:32;;;;;;;5.3;4.8;;;;;;;16.47;95.03613;95584.08;;;;
2022/07/05 04:07:33;;;;;;;5.3;4.8;;;;;;;16.47;95.03613;95584.08;;;;
2022/07/05 04:08:34;;;;;;;5.3;4.8;;;;;;;16.47;95.03613;95584.08;;;;
2022/07/05 04:09:34;;;;;;;5.3;4.8;;;;;;;16.47;95.03613;95584.08;;;;
2022/07/05 04:10:35;;;;;;;5.3;4.8;;;;;;;16.47;95.03613;95584.08;;;;
2022/07/05 04:11:35;;;;;;;5.900001;4.650001;;;;;;;16.45;95.35742;95589.79;;;;
2022/07/05 04:12:36;;;;;;;5.900001;4.650001;;;;;;;16.45;95.35742;95589.79;;;;
2022/07/05 04:13:37;;;;;;;5.900001;4.650001;;;;;;;16.45;95.35742;95589.79;;;;
2022/07/05 04:14:37;;;;;;;5.900001;4.650001;;;;;;;16.45;95.35742;95589.79;;;;
2022/07/05 04:15:38;;;;;;;5.900001;4.650001;;;;;;;16.45;95.35742;95589.79;;;;
2022/07/05 04:16:38;;;;;;;5.900001;4.650001;;;;;;;16.45;95.35742;95589.79;;;;
2022/07/05 04:17:39;;;;;;;5.900001;4.650001;;;;;;;16.45;95.35742;95589.79;;;;
2022/07/05 04:18:48;;;;;;;5.900001;4.650001;;;;;;;16.45;95.35742;95589.79;;;;
2022/07/05 04:19:48;;;;;;;5.900001;4.650001;;;;;;;16.45;95.35742;95589.79;;;;
2022/07/05 04:20:49;;;;;;;5.900001;4.650001;;;;;;;16.45;95.35742;95589.79;;;;
2022/07/05 04:21:49;;;;;;;7.9;5.5;;;;;;;16.47;95.53418;95601.01;;;;
2022/07/05 04:22:50;;;;;;;7.9;5.5;;;;;;;16.47;95.53418;95601.01;;;;
2022/07/05 04:23:51;;;;;;;7.9;5.5;;;;;;;16.47;95.53418;95601.01;;;;
2022/07/05 04:25:24;;;;;;;7.9;5.5;;;;;;;16.47;95.53418;95601.01;;;;
2022/07/05 04:26:25;;;;;;;7.9;5.5;;;;;;;16.47;95.53418;95601.01;;;;
2022/07/05 04:27:26;;;;;;;7.9;5.5;;;;;;;16.47;95.53418;95601.01;;;;
2022/07/05 04:28:29;;;;;;;7.9;5.5;;;;;;;16.47;95.53418;95601.01;;;;
2022/07/05 04:29:29;;;;;;;7.9;5.5;;;;;;;16.47;95.53418;95601.01;;;;
2022/07/05 04:30:30;;;;;;;7.9;5.5;;;;;;;16.47;95.53418;95601.01;;;;
2022/07/05 04:31:31;;;;;;;7.9;5.5;;;;;;;16.47;95.53418;95601.01;;;;
2022/07/05 04:32:31;;;;;;;6.100001;5.5;;;;;;;16.75;96.06152;95592.97;;;;
2022/07/05 04:33:32;;;;;;;6.100001;5.5;;;;;;;16.75;96.06152;95592.97;;;;
2022/07/05 04:34:32;;;;;;;6.100001;5.5;;;;;;;16.75;96.06152;95592.97;;;;
2022/07/05 04:35:33;;;;;;;6.100001;5.5;;;;;;;16.75;96.06152;95592.97;;;;
2022/07/05 04:36:33;;;;;;;6.100001;5.5;;;;;;;16.75;96.06152;95592.97;;;;
2022/07/05 04:37:34;;;;;;;6.100001;5.5;;;;;;;16.75;96.06152;95592.97;;;;
2022/07/05 04:38:34;;;;;;;6.100001;5.5;;;;;;;16.75;96.06152;95592.97;;;;
2022/07/05 04:39:35;;;;;;;6.100001;5.5;;;;;;;16.75;96.06152;95592.97;;;;
2022/07/05 04:40:35;;;;;;;6.100001;5.5;;;;;;;16.75;96.06152;95592.97;;;;
2022/07/05 04:41:36;;;;;;;6.100001;5.5;;;;;;;16.75;96.06152;95592.97;;;;
2022/07/05 04:42:37;;;;;;;6.100001;5.5;;;;;;;16.75;96.06152;95592.97;;;;
2022/07/05 04:43:39;;;;;;;5.150001;4.7;;;;;;;17.07;95.93457;95600.28;;;;
2022/07/05 04:44:39;;;;;;;5.150001;4.7;;;;;;;17.07;95.93457;95600.28;;;;
2022/07/05 04:45:39;;;;;;;5.150001;4.7;;;;;;;17.07;95.93457;95600.28;;;;
2022/07/05 04:46:40;;;;;;;5.150001;4.7;;;;;;;17.07;95.93457;95600.28;;;;
2022/07/05 04:47:40;;;;;;;5.150001;4.7;;;;;;;17.07;95.93457;95600.28;;;;
2022/07/05 04:48:41;;;;;;;5.150001;4.7;;;;;;;17.07;95.93457;95600.28;;;;
2022/07/05 04:49:41;;;;;;;5.150001;4.7;;;;;;;17.07;95.93457;95600.28;;;;
2022/07/05 04:50:42;;;;;;;5.150001;4.7;;;;;;;17.07;95.93457;95600.28;;;;
2022/07/05 04:51:43;;;;;;;5.150001;4.7;;;;;;;17.07;95.93457;95600.28;;;;
2022/07/05 04:52:43;;;;;;;5.150001;4.7;;;;;;;17.07;95.93457;95600.28;;;;
2022/07/05 04:53:44;;;;;;;4.849999;4.45;;;;;;;17.45;95.96289;95596.34;;;;
2022/07/05 04:54:44;;;;;;;4.849999;4.45;;;;;;;17.45;95.96289;95596.34;;;;
2022/07/05 04:55:45;;;;;;;4.849999;4.45;;;;;;;17.45;95.96289;95596.34;;;;
2022/07/05 04:56:45;;;;;;;4.849999;4.45;;;;;;;17.45;95.96289;95596.34;;;;
2022/07/05 04:57:45;;;;;;;4.849999;4.45;;;;;;;17.45;95.96289;95596.34;;;;
2022/07/05 04:58:46;;;;;;;4.849999;4.45;;;;;;;17.45;95.96289;95596.34;;;;
2022/07/05 04:59:46;;;;;;;4.849999;4.45;;;;;;;17.45;95.96289;95596.34;;;;
2022/07/05 05:00:47;;;;;;;4.849999;4.45;;;;;;;17.45;95.96289;95596.34;;;;
2022/07/05 05:01:47;;;;;;;4.849999;4.45;;;;;;;17.45;95.96289;95596.34;;;;
2022/07/05 05:02:48;;;;;;;4.849999;4.45;;;;;;;17.45;95.96289;95596.34;;;;
2022/07/05 05:03:48;;;;;;;4.849999;4.45;;;;;;;17.45;95.96289;95596.34;;;;
2022/07/05 05:04:49;;;;;;;4.2;3.75;;;;;;;17.66;95.70605;95594.22;;;;
2022/07/05 05:05:49;;;;;;;4.2;3.75;;;;;;;17.66;95.70605;95594.22;;;;
2022/07/05 05:06:50;;;;;;;4.2;3.75;;;;;;;17.66;95.70605;95594.22;;;;
2022/07/05 05:07:50;;;;;;;4.2;3.75;;;;;;;17.66;95.70605;95594.22;;;;
2022/07/05 05:08:51;;;;;;;4.2;3.75;;;;;;;17.66;95.70605;95594.22;;;;
2022/07/05 05:09:51;;;;;;;4.2;3.75;;;;;;;17.66;95.70605;95594.22;;;;
2022/07/05 05:10:52;;;;;;;4.2;3.75;;;;;;;17.66;95.70605;95594.22;;;;
2022/07/05 05:11:53;;;;;;;4.2;3.75;;;;;;;17.66;95.70605;95594.22;;;;
2022/07/05 05:12:53;;;;;;;4.2;3.75;;;;;;;17.66;95.70605;95594.22;;;;
2022/07/05 05:13:54;;;;;;;4.2;3.75;;;;;;;17.66;95.70605;95594.22;;;;
2022/07/05 05:14:54;;;;;;;4.3;3.75;;;;;;;17.79;95.70996;95590.36;;;;
2022/07/05 05:15:54;;;;;;;4.3;3.75;;;;;;;17.79;95.70996;95590.36;;;;
2022/07/05 05:16:55;;;;;;;4.3;3.75;;;;;;;17.79;95.70996;95590.36;;;;
2022/07/05 05:17:55;;;;;;;4.3;3.75;;;;;;;17.79;95.70996;95590.36;;;;
2022/07/05 05:18:56;;;;;;;4.3;3.75;;;;;;;17.79;95.70996;95590.36;;;;
2022/07/05 05:19:57;;;;;;;4.3;3.75;;;;;;;17.79;95.70996;95590.36;;;;
2022/07/05 05:20:57;;;;;;;4.3;3.75;;;;;;;17.79;95.70996;95590.36;;;;
2022/07/05 05:21:58;;;;;;;4.3;3.75;;;;;;;17.79;95.70996;95590.36;;;;
2022/07/05 05:22:58;;;;;;;4.3;3.75;;;;;;;17.79;95.70996;95590.36;;;;
2022/07/05 05:23:59;;;;;;;4.3;3.75;;;;;;;17.79;95.70996;95590.36;;;;
2022/07/05 05:24:59;;;;;;;4.3;3.75;;;;;;;17.79;95.70996;95590.36;;;;
2022/07/05 05:26:00;;;;;;;5.3;3.900001;;;;;;;17.89;95.44922;95595.84;;;;
2022/07/05 05:27:00;;;;;;;5.3;3.900001;;;;;;;17.89;95.44922;95595.84;;;;
2022/07/05 05:28:01;;;;;;;5.3;3.900001;;;;;;;17.89;95.44922;95595.84;;;;
2022/07/05 05:29:03;;;;;;;5.3;3.900001;;;;;;;17.89;95.44922;95595.84;;;;
2022/07/05 05:30:04;;;;;;;5.3;3.900001;;;;;;;17.89;95.44922;95595.84;;;;
2022/07/05 05:31:05;;;;;;;5.3;3.900001;;;;;;;17.89;95.44922;95595.84;;;;
2022/07/05 05:32:07;;;;;;;5.3;3.900001;;;;;;;17.89;95.44922;95595.84;;;;